sensor_id;sensor_type;location;lat;lon;timestamp;P1;durP1;ratioP1;P2;durP2;ratioP2
41755;SDS011;27435;48.480;9.258;2022-10-17T00:00:11;5.57;;;0.80;;
41755;SDS011;27435;48.480;9.258;2022-10-17T00:02:37;2.92;;;0.75;;
41755;SDS011;27435;48.480;9.258;2022-10-17T00:05:03;1.40;;;0.82;;
41755;SDS011;27435;48.480;9.258;2022-10-17T00:07:29;3.65;;;1.10;;
41755;SDS011;27435;48.480;9.258;2022-10-17T00:09:55;1.60;;;0.80;;
41755;SDS011;27435;48.480;9.258;2022-10-17T00:12:20;1.75;;;0.95;;
41755;SDS011;27435;48.480;9.258;2022-10-17T00:14:46;1.80;;;0.80;;
41755;SDS011;27435;48.480;9.258;2022-10-17T00:17:12;7.93;;;1.27;;
41755;SDS011;27435;48.480;9.258;2022-10-17T00:19:39;4.10;;;1.58;;
41755;SDS011;27435;48.480;9.258;2022-10-17T00:22:04;3.88;;;0.90;;
41755;SDS011;27435;48.480;9.258;2022-10-17T00:24:30;1.55;;;0.65;;
41755;SDS011;27435;48.480;9.258;2022-10-17T00:26:56;2.85;;;0.88;;
41755;SDS011;27435;48.480;9.258;2022-10-17T00:29:21;2.25;;;1.00;;
41755;SDS011;27435;48.480;9.258;2022-10-17T00:31:47;4.70;;;1.00;;
41755;SDS011;27435;48.480;9.258;2022-10-17T00:34:13;6.20;;;1.02;;
41755;SDS011;27435;48.480;9.258;2022-10-17T00:36:38;5.55;;;0.73;;
41755;SDS011;27435;48.480;9.258;2022-10-17T00:39:04;4.07;;;0.80;;
41755;SDS011;27435;48.480;9.258;2022-10-17T00:41:30;4.10;;;1.02;;
41755;SDS011;27435;48.480;9.258;2022-10-17T00:44:02;4.60;;;0.90;;
41755;SDS011;27435;48.480;9.258;2022-10-17T00:46:31;1.85;;;0.85;;
41755;SDS011;27435;48.480;9.258;2022-10-17T00:48:59;3.60;;;0.90;;
41755;SDS011;27435;48.480;9.258;2022-10-17T00:54:09;2.05;;;1.00;;
41755;SDS011;27435;48.480;9.258;2022-10-17T00:56:37;3.85;;;0.75;;
41755;SDS011;27435;48.480;9.258;2022-10-17T00:59:04;2.60;;;0.82;;
41755;SDS011;27435;48.480;9.258;2022-10-17T01:01:32;3.13;;;1.23;;
41755;SDS011;27435;48.480;9.258;2022-10-17T01:03:58;2.15;;;1.08;;
41755;SDS011;27435;48.480;9.258;2022-10-17T01:06:24;7.13;;;0.95;;
41755;SDS011;27435;48.480;9.258;2022-10-17T01:08:50;8.45;;;1.67;;
41755;SDS011;27435;48.480;9.258;2022-10-17T01:11:27;5.90;;;1.00;;
41755;SDS011;27435;48.480;9.258;2022-10-17T01:14:12;3.28;;;1.40;;
41755;SDS011;27435;48.480;9.258;2022-10-17T01:22:32;8.60;;;1.30;;
41755;SDS011;27435;48.480;9.258;2022-10-17T01:47:12;3.58;;;1.58;;
41755;SDS011;27435;48.480;9.258;2022-10-17T01:49:43;2.33;;;1.30;;
41755;SDS011;27435;48.480;9.258;2022-10-17T01:52:18;2.80;;;1.20;;
41755;SDS011;27435;48.480;9.258;2022-10-17T01:54:54;1.77;;;0.90;;
41755;SDS011;27435;48.480;9.258;2022-10-17T01:59:58;3.77;;;1.30;;
41755;SDS011;27435;48.480;9.258;2022-10-17T02:02:26;3.83;;;1.40;;
41755;SDS011;27435;48.480;9.258;2022-10-17T02:04:52;2.00;;;1.10;;
41755;SDS011;27435;48.480;9.258;2022-10-17T02:07:20;5.17;;;1.53;;
41755;SDS011;27435;48.480;9.258;2022-10-17T02:09:46;3.03;;;1.50;;
41755;SDS011;27435;48.480;9.258;2022-10-17T02:17:44;4.20;;;1.37;;
41755;SDS011;27435;48.480;9.258;2022-10-17T02:20:29;6.17;;;1.63;;
41755;SDS011;27435;48.480;9.258;2022-10-17T02:23:08;4.37;;;1.70;;
41755;SDS011;27435;48.480;9.258;2022-10-17T02:25:45;11.17;;;1.60;;
41755;SDS011;27435;48.480;9.258;2022-10-17T02:31:13;3.67;;;1.35;;
41755;SDS011;27435;48.480;9.258;2022-10-17T02:33:55;4.90;;;1.40;;
41755;SDS011;27435;48.480;9.258;2022-10-17T02:36:28;5.87;;;1.40;;
41755;SDS011;27435;48.480;9.258;2022-10-17T02:39:09;15.95;;;2.25;;
41755;SDS011;27435;48.480;9.258;2022-10-17T02:41:36;2.63;;;1.50;;
41755;SDS011;27435;48.480;9.258;2022-10-17T02:44:04;5.97;;;1.90;;
41755;SDS011;27435;48.480;9.258;2022-10-17T02:46:30;4.17;;;1.60;;
41755;SDS011;27435;48.480;9.258;2022-10-17T02:49:00;5.33;;;2.13;;
41755;SDS011;27435;48.480;9.258;2022-10-17T02:51:43;5.33;;;1.67;;
41755;SDS011;27435;48.480;9.258;2022-10-17T02:54:21;5.50;;;1.83;;
41755;SDS011;27435;48.480;9.258;2022-10-17T02:57:09;4.73;;;1.63;;
41755;SDS011;27435;48.480;9.258;2022-10-17T02:59:47;4.23;;;2.10;;
41755;SDS011;27435;48.480;9.258;2022-10-17T03:02:14;7.33;;;1.80;;
41755;SDS011;27435;48.480;9.258;2022-10-17T03:04:43;6.93;;;1.73;;
41755;SDS011;27435;48.480;9.258;2022-10-17T03:07:10;5.50;;;1.60;;
41755;SDS011;27435;48.480;9.258;2022-10-17T03:09:35;3.20;;;1.60;;
41755;SDS011;27435;48.480;9.258;2022-10-17T03:12:01;3.93;;;2.07;;
41755;SDS011;27435;48.480;9.258;2022-10-17T03:14:27;4.97;;;1.97;;
41755;SDS011;27435;48.480;9.258;2022-10-17T03:16:52;4.73;;;1.70;;
41755;SDS011;27435;48.480;9.258;2022-10-17T03:19:18;2.60;;;1.60;;
41755;SDS011;27435;48.480;9.258;2022-10-17T03:21:43;2.97;;;1.50;;
41755;SDS011;27435;48.480;9.258;2022-10-17T03:24:09;12.27;;;3.40;;
41755;SDS011;27435;48.480;9.258;2022-10-17T03:26:34;5.23;;;1.73;;
41755;SDS011;27435;48.480;9.258;2022-10-17T03:29:00;5.00;;;1.77;;
41755;SDS011;27435;48.480;9.258;2022-10-17T03:31:26;2.83;;;1.50;;
41755;SDS011;27435;48.480;9.258;2022-10-17T03:33:51;4.57;;;1.80;;
41755;SDS011;27435;48.480;9.258;2022-10-17T03:36:17;2.80;;;1.30;;
41755;SDS011;27435;48.480;9.258;2022-10-17T03:38:43;3.73;;;1.93;;
41755;SDS011;27435;48.480;9.258;2022-10-17T03:41:10;4.50;;;1.40;;
41755;SDS011;27435;48.480;9.258;2022-10-17T03:43:36;4.07;;;1.43;;
41755;SDS011;27435;48.480;9.258;2022-10-17T03:46:02;5.47;;;1.87;;
41755;SDS011;27435;48.480;9.258;2022-10-17T03:48:28;3.40;;;1.90;;
41755;SDS011;27435;48.480;9.258;2022-10-17T03:51:01;2.73;;;1.83;;
41755;SDS011;27435;48.480;9.258;2022-10-17T03:53:29;6.10;;;1.90;;
41755;SDS011;27435;48.480;9.258;2022-10-17T03:55:56;3.60;;;2.07;;
41755;SDS011;27435;48.480;9.258;2022-10-17T03:58:21;4.90;;;1.70;;
41755;SDS011;27435;48.480;9.258;2022-10-17T04:00:47;3.70;;;1.80;;
41755;SDS011;27435;48.480;9.258;2022-10-17T04:03:13;3.63;;;1.80;;
41755;SDS011;27435;48.480;9.258;2022-10-17T04:05:38;7.43;;;1.83;;
41755;SDS011;27435;48.480;9.258;2022-10-17T04:08:04;12.07;;;2.33;;
41755;SDS011;27435;48.480;9.258;2022-10-17T04:10:29;4.93;;;1.87;;
41755;SDS011;27435;48.480;9.258;2022-10-17T04:12:55;7.50;;;1.87;;
41755;SDS011;27435;48.480;9.258;2022-10-17T04:15:21;4.47;;;2.07;;
41755;SDS011;27435;48.480;9.258;2022-10-17T04:17:46;4.10;;;2.07;;
41755;SDS011;27435;48.480;9.258;2022-10-17T04:20:12;5.13;;;1.80;;
41755;SDS011;27435;48.480;9.258;2022-10-17T04:22:38;3.67;;;1.93;;
41755;SDS011;27435;48.480;9.258;2022-10-17T04:25:04;3.30;;;1.60;;
41755;SDS011;27435;48.480;9.258;2022-10-17T04:27:29;6.33;;;2.47;;
41755;SDS011;27435;48.480;9.258;2022-10-17T04:29:55;4.97;;;1.63;;
41755;SDS011;27435;48.480;9.258;2022-10-17T04:32:21;2.80;;;1.60;;
41755;SDS011;27435;48.480;9.258;2022-10-17T04:34:49;8.37;;;2.00;;
41755;SDS011;27435;48.480;9.258;2022-10-17T04:37:15;5.63;;;2.10;;
41755;SDS011;27435;48.480;9.258;2022-10-17T04:39:41;8.00;;;2.07;;
41755;SDS011;27435;48.480;9.258;2022-10-17T04:42:06;2.83;;;1.63;;
41755;SDS011;27435;48.480;9.258;2022-10-17T04:44:32;5.67;;;2.10;;
41755;SDS011;27435;48.480;9.258;2022-10-17T04:46:59;10.43;;;2.17;;
41755;SDS011;27435;48.480;9.258;2022-10-17T04:49:25;4.77;;;2.13;;
41755;SDS011;27435;48.480;9.258;2022-10-17T04:51:50;3.27;;;2.00;;
41755;SDS011;27435;48.480;9.258;2022-10-17T04:54:16;4.50;;;1.90;;
41755;SDS011;27435;48.480;9.258;2022-10-17T04:56:42;3.27;;;1.80;;
41755;SDS011;27435;48.480;9.258;2022-10-17T04:59:07;4.00;;;1.67;;
41755;SDS011;27435;48.480;9.258;2022-10-17T05:01:33;6.97;;;1.90;;
41755;SDS011;27435;48.480;9.258;2022-10-17T05:03:59;3.23;;;1.70;;
41755;SDS011;27435;48.480;9.258;2022-10-17T05:06:24;5.80;;;1.97;;
41755;SDS011;27435;48.480;9.258;2022-10-17T05:08:53;7.70;;;2.10;;
41755;SDS011;27435;48.480;9.258;2022-10-17T05:11:23;4.60;;;1.67;;
41755;SDS011;27435;48.480;9.258;2022-10-17T05:14:00;8.90;;;2.20;;
41755;SDS011;27435;48.480;9.258;2022-10-17T05:18:53;3.20;;;1.67;;
41755;SDS011;27435;48.480;9.258;2022-10-17T05:21:20;3.73;;;1.30;;
41755;SDS011;27435;48.480;9.258;2022-10-17T05:23:48;4.60;;;1.87;;
41755;SDS011;27435;48.480;9.258;2022-10-17T05:26:14;7.23;;;1.70;;
41755;SDS011;27435;48.480;9.258;2022-10-17T05:28:40;5.33;;;1.57;;
41755;SDS011;27435;48.480;9.258;2022-10-17T05:31:06;8.57;;;2.70;;
41755;SDS011;27435;48.480;9.258;2022-10-17T05:33:33;7.07;;;1.93;;
41755;SDS011;27435;48.480;9.258;2022-10-17T05:35:59;7.40;;;2.53;;
41755;SDS011;27435;48.480;9.258;2022-10-17T05:38:25;4.37;;;2.10;;
41755;SDS011;27435;48.480;9.258;2022-10-17T05:40:51;5.93;;;2.47;;
41755;SDS011;27435;48.480;9.258;2022-10-17T05:43:24;5.47;;;2.63;;
41755;SDS011;27435;48.480;9.258;2022-10-17T05:45:50;7.83;;;2.80;;
41755;SDS011;27435;48.480;9.258;2022-10-17T05:48:16;2.90;;;1.80;;
41755;SDS011;27435;48.480;9.258;2022-10-17T05:50:42;4.17;;;1.87;;
41755;SDS011;27435;48.480;9.258;2022-10-17T05:53:08;3.43;;;1.60;;
41755;SDS011;27435;48.480;9.258;2022-10-17T05:55:34;4.10;;;1.80;;
41755;SDS011;27435;48.480;9.258;2022-10-17T05:58:00;4.67;;;2.10;;
41755;SDS011;27435;48.480;9.258;2022-10-17T06:00:25;7.03;;;2.17;;
41755;SDS011;27435;48.480;9.258;2022-10-17T06:02:51;4.57;;;1.80;;
41755;SDS011;27435;48.480;9.258;2022-10-17T06:05:17;4.27;;;2.10;;
41755;SDS011;27435;48.480;9.258;2022-10-17T06:07:45;6.43;;;2.10;;
41755;SDS011;27435;48.480;9.258;2022-10-17T06:10:11;6.40;;;2.00;;
41755;SDS011;27435;48.480;9.258;2022-10-17T06:12:39;4.27;;;2.03;;
41755;SDS011;27435;48.480;9.258;2022-10-17T06:15:04;3.80;;;2.00;;
41755;SDS011;27435;48.480;9.258;2022-10-17T06:17:30;4.00;;;2.17;;
41755;SDS011;27435;48.480;9.258;2022-10-17T06:19:56;4.13;;;2.17;;
41755;SDS011;27435;48.480;9.258;2022-10-17T06:22:22;4.30;;;2.00;;
41755;SDS011;27435;48.480;9.258;2022-10-17T06:24:47;5.70;;;2.10;;
41755;SDS011;27435;48.480;9.258;2022-10-17T06:27:13;5.03;;;2.10;;
41755;SDS011;27435;48.480;9.258;2022-10-17T06:29:38;6.83;;;1.77;;
41755;SDS011;27435;48.480;9.258;2022-10-17T06:32:04;7.13;;;1.83;;
41755;SDS011;27435;48.480;9.258;2022-10-17T06:34:31;7.97;;;1.77;;
41755;SDS011;27435;48.480;9.258;2022-10-17T06:36:56;4.90;;;2.60;;
41755;SDS011;27435;48.480;9.258;2022-10-17T06:39:22;4.90;;;2.50;;
41755;SDS011;27435;48.480;9.258;2022-10-17T06:41:50;3.20;;;1.63;;
41755;SDS011;27435;48.480;9.258;2022-10-17T06:44:16;6.43;;;1.67;;
41755;SDS011;27435;48.480;9.258;2022-10-17T06:46:42;3.70;;;1.40;;
41755;SDS011;27435;48.480;9.258;2022-10-17T06:49:08;4.13;;;1.53;;
41755;SDS011;27435;48.480;9.258;2022-10-17T06:51:34;4.27;;;1.57;;
41755;SDS011;27435;48.480;9.258;2022-10-17T06:54:01;9.17;;;2.03;;
41755;SDS011;27435;48.480;9.258;2022-10-17T06:56:27;5.43;;;2.00;;
41755;SDS011;27435;48.480;9.258;2022-10-17T06:58:53;3.03;;;1.73;;
41755;SDS011;27435;48.480;9.258;2022-10-17T07:01:18;6.23;;;1.70;;
41755;SDS011;27435;48.480;9.258;2022-10-17T07:03:46;5.37;;;1.80;;
41755;SDS011;27435;48.480;9.258;2022-10-17T07:06:13;8.13;;;1.93;;
41755;SDS011;27435;48.480;9.258;2022-10-17T07:08:42;9.33;;;2.80;;
41755;SDS011;27435;48.480;9.258;2022-10-17T07:11:12;4.57;;;2.83;;
41755;SDS011;27435;48.480;9.258;2022-10-17T07:13:39;6.40;;;2.53;;
41755;SDS011;27435;48.480;9.258;2022-10-17T07:16:06;4.63;;;2.50;;
41755;SDS011;27435;48.480;9.258;2022-10-17T07:18:32;5.00;;;2.83;;
41755;SDS011;27435;48.480;9.258;2022-10-17T07:20:58;6.00;;;2.33;;
41755;SDS011;27435;48.480;9.258;2022-10-17T07:23:23;11.03;;;2.10;;
41755;SDS011;27435;48.480;9.258;2022-10-17T07:25:49;7.80;;;2.67;;
41755;SDS011;27435;48.480;9.258;2022-10-17T07:28:15;7.67;;;2.27;;
41755;SDS011;27435;48.480;9.258;2022-10-17T07:30:41;4.87;;;2.33;;
41755;SDS011;27435;48.480;9.258;2022-10-17T07:33:06;7.10;;;2.70;;
41755;SDS011;27435;48.480;9.258;2022-10-17T07:35:32;7.30;;;2.40;;
41755;SDS011;27435;48.480;9.258;2022-10-17T07:37:57;5.57;;;2.30;;
41755;SDS011;27435;48.480;9.258;2022-10-17T07:40:23;9.87;;;2.60;;
41755;SDS011;27435;48.480;9.258;2022-10-17T07:42:49;7.73;;;2.20;;
41755;SDS011;27435;48.480;9.258;2022-10-17T07:45:15;8.60;;;2.70;;
41755;SDS011;27435;48.480;9.258;2022-10-17T07:47:41;7.15;;;1.92;;
41755;SDS011;27435;48.480;9.258;2022-10-17T07:50:07;3.23;;;1.73;;
41755;SDS011;27435;48.480;9.258;2022-10-17T07:52:33;10.03;;;2.53;;
41755;SDS011;27435;48.480;9.258;2022-10-17T07:54:59;4.18;;;1.77;;
41755;SDS011;27435;48.480;9.258;2022-10-17T07:57:24;9.65;;;2.78;;
41755;SDS011;27435;48.480;9.258;2022-10-17T07:59:50;8.98;;;1.83;;
41755;SDS011;27435;48.480;9.258;2022-10-17T08:02:19;7.47;;;1.90;;
41755;SDS011;27435;48.480;9.258;2022-10-17T08:04:47;5.88;;;2.35;;
41755;SDS011;27435;48.480;9.258;2022-10-17T08:07:13;5.95;;;1.95;;
41755;SDS011;27435;48.480;9.258;2022-10-17T08:09:40;6.15;;;2.03;;
41755;SDS011;27435;48.480;9.258;2022-10-17T08:12:06;9.90;;;2.38;;
41755;SDS011;27435;48.480;9.258;2022-10-17T08:14:31;8.43;;;2.20;;
41755;SDS011;27435;48.480;9.258;2022-10-17T08:16:57;4.65;;;2.28;;
41755;SDS011;27435;48.480;9.258;2022-10-17T08:19:23;5.95;;;2.40;;
41755;SDS011;27435;48.480;9.258;2022-10-17T08:21:48;7.85;;;2.20;;
41755;SDS011;27435;48.480;9.258;2022-10-17T08:24:14;6.00;;;1.90;;
41755;SDS011;27435;48.480;9.258;2022-10-17T08:26:40;6.32;;;2.10;;
41755;SDS011;27435;48.480;9.258;2022-10-17T08:29:10;11.25;;;2.95;;
41755;SDS011;27435;48.480;9.258;2022-10-17T08:31:37;7.10;;;2.60;;
41755;SDS011;27435;48.480;9.258;2022-10-17T08:34:02;8.80;;;2.35;;
41755;SDS011;27435;48.480;9.258;2022-10-17T08:39:50;5.70;;;1.85;;
41755;SDS011;27435;48.480;9.258;2022-10-17T08:47:52;7.55;;;1.83;;
41755;SDS011;27435;48.480;9.258;2022-10-17T08:55:39;7.45;;;1.90;;
41755;SDS011;27435;48.480;9.258;2022-10-17T08:58:12;7.20;;;2.00;;
41755;SDS011;27435;48.480;9.258;2022-10-17T09:00:38;9.40;;;1.83;;
41755;SDS011;27435;48.480;9.258;2022-10-17T09:03:27;6.82;;;1.80;;
41755;SDS011;27435;48.480;9.258;2022-10-17T09:17:11;5.75;;;1.67;;
41755;SDS011;27435;48.480;9.258;2022-10-17T09:19:42;7.78;;;1.80;;
41755;SDS011;27435;48.480;9.258;2022-10-17T09:22:17;5.85;;;1.50;;
41755;SDS011;27435;48.480;9.258;2022-10-17T09:24:56;7.13;;;1.92;;
41755;SDS011;27435;48.480;9.258;2022-10-17T09:30:16;3.95;;;1.80;;
41755;SDS011;27435;48.480;9.258;2022-10-17T09:32:53;4.82;;;1.85;;
41755;SDS011;27435;48.480;9.258;2022-10-17T09:35:19;4.35;;;2.10;;
41755;SDS011;27435;48.480;9.258;2022-10-17T09:37:46;3.22;;;1.38;;
41755;SDS011;27435;48.480;9.258;2022-10-17T09:40:25;8.00;;;1.80;;
41755;SDS011;27435;48.480;9.258;2022-10-17T09:42:55;7.45;;;1.60;;
41755;SDS011;27435;48.480;9.258;2022-10-17T09:45:22;4.22;;;1.70;;
41755;SDS011;27435;48.480;9.258;2022-10-17T09:48:03;3.25;;;1.52;;
41755;SDS011;27435;48.480;9.258;2022-10-17T09:50:38;9.35;;;1.55;;
41755;SDS011;27435;48.480;9.258;2022-10-17T09:53:09;3.97;;;1.20;;
41755;SDS011;27435;48.480;9.258;2022-10-17T09:55:40;5.28;;;1.35;;
41755;SDS011;27435;48.480;9.258;2022-10-17T09:58:08;6.40;;;1.35;;
41755;SDS011;27435;48.480;9.258;2022-10-17T10:00:36;4.78;;;1.30;;
41755;SDS011;27435;48.480;9.258;2022-10-17T10:03:13;5.70;;;1.42;;
41755;SDS011;27435;48.480;9.258;2022-10-17T10:06:01;4.32;;;1.20;;
41755;SDS011;27435;48.480;9.258;2022-10-17T10:08:50;5.32;;;1.10;;
41755;SDS011;27435;48.480;9.258;2022-10-17T10:11:23;6.55;;;2.20;;
41755;SDS011;27435;48.480;9.258;2022-10-17T10:13:50;5.20;;;1.83;;
41755;SDS011;27435;48.480;9.258;2022-10-17T10:16:29;4.93;;;1.67;;
41755;SDS011;27435;48.480;9.258;2022-10-17T10:18:56;3.55;;;1.30;;
41755;SDS011;27435;48.480;9.258;2022-10-17T10:21:23;6.90;;;1.20;;
41755;SDS011;27435;48.480;9.258;2022-10-17T10:26:52;4.00;;;1.30;;
41755;SDS011;27435;48.480;9.258;2022-10-17T10:29:25;6.72;;;1.13;;
41755;SDS011;27435;48.480;9.258;2022-10-17T10:34:49;2.90;;;1.20;;
41755;SDS011;27435;48.480;9.258;2022-10-17T10:37:26;2.75;;;1.20;;
41755;SDS011;27435;48.480;9.258;2022-10-17T10:40:23;4.10;;;0.93;;
41755;SDS011;27435;48.480;9.258;2022-10-17T10:42:56;5.13;;;1.10;;
41755;SDS011;27435;48.480;9.258;2022-10-17T10:45:24;4.10;;;1.13;;
41755;SDS011;27435;48.480;9.258;2022-10-17T10:48:05;5.03;;;1.10;;
41755;SDS011;27435;48.480;9.258;2022-10-17T10:50:45;5.47;;;1.00;;
41755;SDS011;27435;48.480;9.258;2022-10-17T11:01:33;6.53;;;0.93;;
41755;SDS011;27435;48.480;9.258;2022-10-17T11:04:12;5.15;;;1.17;;
41755;SDS011;27435;48.480;9.258;2022-10-17T11:07:08;4.83;;;1.20;;
41755;SDS011;27435;48.480;9.258;2022-10-17T11:12:33;4.25;;;1.30;;
41755;SDS011;27435;48.480;9.258;2022-10-17T11:26:10;7.53;;;1.20;;
41755;SDS011;27435;48.480;9.258;2022-10-17T11:28:51;5.65;;;1.58;;
41755;SDS011;27435;48.480;9.258;2022-10-17T11:31:18;4.30;;;1.30;;
41755;SDS011;27435;48.480;9.258;2022-10-17T11:33:48;5.25;;;1.20;;
41755;SDS011;27435;48.480;9.258;2022-10-17T11:36:17;6.88;;;1.45;;
41755;SDS011;27435;48.480;9.258;2022-10-17T11:38:50;6.88;;;1.42;;
41755;SDS011;27435;48.480;9.258;2022-10-17T11:41:26;5.50;;;1.10;;
41755;SDS011;27435;48.480;9.258;2022-10-17T11:44:41;5.28;;;1.15;;
41755;SDS011;27435;48.480;9.258;2022-10-17T11:49:51;3.55;;;1.20;;
41755;SDS011;27435;48.480;9.258;2022-10-17T11:52:43;4.18;;;1.38;;
41755;SDS011;27435;48.480;9.258;2022-10-17T11:55:13;8.88;;;1.45;;
41755;SDS011;27435;48.480;9.258;2022-10-17T12:02:53;10.20;;;1.80;;
41755;SDS011;27435;48.480;9.258;2022-10-17T12:08:04;4.35;;;1.40;;
41755;SDS011;27435;48.480;9.258;2022-10-17T12:15:52;7.57;;;1.77;;
41755;SDS011;27435;48.480;9.258;2022-10-17T12:18:18;4.47;;;1.10;;
41755;SDS011;27435;48.480;9.258;2022-10-17T12:20:56;8.20;;;1.42;;
41755;SDS011;27435;48.480;9.258;2022-10-17T12:23:27;4.85;;;1.77;;
41755;SDS011;27435;48.480;9.258;2022-10-17T12:26:00;5.65;;;1.20;;
41755;SDS011;27435;48.480;9.258;2022-10-17T12:29:02;7.60;;;1.67;;
41755;SDS011;27435;48.480;9.258;2022-10-17T12:31:21;2.55;;;1.10;;
41755;SDS011;27435;48.480;9.258;2022-10-17T12:33:52;7.13;;;1.42;;
41755;SDS011;27435;48.480;9.258;2022-10-17T13:00:22;8.00;;;1.20;;
41755;SDS011;27435;48.480;9.258;2022-10-17T13:03:19;7.50;;;2.08;;
41755;SDS011;27435;48.480;9.258;2022-10-17T13:05:49;3.83;;;1.30;;
41755;SDS011;27435;48.480;9.258;2022-10-17T13:08:22;3.92;;;1.42;;
41755;SDS011;27435;48.480;9.258;2022-10-17T13:10:51;3.83;;;1.10;;
41755;SDS011;27435;48.480;9.258;2022-10-17T13:13:20;6.95;;;1.15;;
41755;SDS011;27435;48.480;9.258;2022-10-17T13:15:48;3.60;;;1.00;;
41755;SDS011;27435;48.480;9.258;2022-10-17T13:18:17;4.07;;;1.00;;
41755;SDS011;27435;48.480;9.258;2022-10-17T13:21:20;5.05;;;0.80;;
41755;SDS011;27435;48.480;9.258;2022-10-17T13:23:40;8.00;;;1.08;;
41755;SDS011;27435;48.480;9.258;2022-10-17T13:26:10;4.55;;;0.90;;
41755;SDS011;27435;48.480;9.258;2022-10-17T13:28:39;3.90;;;0.98;;
41755;SDS011;27435;48.480;9.258;2022-10-17T13:31:05;6.28;;;1.05;;
41755;SDS011;27435;48.480;9.258;2022-10-17T13:33:33;8.02;;;1.35;;
41755;SDS011;27435;48.480;9.258;2022-10-17T13:36:03;6.00;;;0.93;;
41755;SDS011;27435;48.480;9.258;2022-10-17T13:38:32;4.60;;;1.27;;
41755;SDS011;27435;48.480;9.258;2022-10-17T13:40:59;6.60;;;1.40;;
41755;SDS011;27435;48.480;9.258;2022-10-17T13:43:27;3.58;;;1.25;;
41755;SDS011;27435;48.480;9.258;2022-10-17T13:45:56;6.90;;;0.90;;
41755;SDS011;27435;48.480;9.258;2022-10-17T13:48:27;8.98;;;1.45;;
41755;SDS011;27435;48.480;9.258;2022-10-17T13:50:56;4.15;;;0.90;;
41755;SDS011;27435;48.480;9.258;2022-10-17T13:53:31;4.07;;;0.88;;
41755;SDS011;27435;48.480;9.258;2022-10-17T13:58:48;7.47;;;1.20;;
41755;SDS011;27435;48.480;9.258;2022-10-17T14:01:15;7.03;;;1.10;;
41755;SDS011;27435;48.480;9.258;2022-10-17T14:03:45;5.75;;;0.82;;
41755;SDS011;27435;48.480;9.258;2022-10-17T14:08:47;3.80;;;0.90;;
41755;SDS011;27435;48.480;9.258;2022-10-17T14:11:24;2.28;;;0.70;;
41755;SDS011;27435;48.480;9.258;2022-10-17T14:13:56;2.88;;;0.60;;
41755;SDS011;27435;48.480;9.258;2022-10-17T14:16:23;4.20;;;0.80;;
41755;SDS011;27435;48.480;9.258;2022-10-17T14:18:50;4.00;;;0.70;;
41755;SDS011;27435;48.480;9.258;2022-10-17T14:21:22;6.38;;;1.00;;
41755;SDS011;27435;48.480;9.258;2022-10-17T14:24:11;12.80;;;1.45;;
41755;SDS011;27435;48.480;9.258;2022-10-17T14:27:23;5.55;;;1.02;;
41755;SDS011;27435;48.480;9.258;2022-10-17T14:29:49;2.60;;;0.95;;
41755;SDS011;27435;48.480;9.258;2022-10-17T14:32:16;3.22;;;0.85;;
41755;SDS011;27435;48.480;9.258;2022-10-17T14:34:43;5.40;;;1.40;;
41755;SDS011;27435;48.480;9.258;2022-10-17T14:37:26;3.75;;;0.90;;
41755;SDS011;27435;48.480;9.258;2022-10-17T14:40:00;6.40;;;0.98;;
41755;SDS011;27435;48.480;9.258;2022-10-17T14:42:27;7.30;;;1.30;;
41755;SDS011;27435;48.480;9.258;2022-10-17T14:44:53;7.45;;;1.42;;
41755;SDS011;27435;48.480;9.258;2022-10-17T14:47:29;5.28;;;1.33;;
41755;SDS011;27435;48.480;9.258;2022-10-17T14:50:17;4.18;;;0.85;;
41755;SDS011;27435;48.480;9.258;2022-10-17T14:53:19;4.63;;;0.98;;
41755;SDS011;27435;48.480;9.258;2022-10-17T14:55:53;6.30;;;0.80;;
41755;SDS011;27435;48.480;9.258;2022-10-17T14:58:22;8.52;;;1.23;;
41755;SDS011;27435;48.480;9.258;2022-10-17T15:00:51;7.13;;;1.00;;
41755;SDS011;27435;48.480;9.258;2022-10-17T15:03:17;6.97;;;2.20;;
41755;SDS011;27435;48.480;9.258;2022-10-17T15:05:43;4.68;;;0.98;;
41755;SDS011;27435;48.480;9.258;2022-10-17T15:08:11;7.10;;;1.10;;
41755;SDS011;27435;48.480;9.258;2022-10-17T15:10:42;7.80;;;1.00;;
41755;SDS011;27435;48.480;9.258;2022-10-17T15:13:08;7.53;;;1.00;;
41755;SDS011;27435;48.480;9.258;2022-10-17T15:15:36;5.13;;;1.15;;
41755;SDS011;27435;48.480;9.258;2022-10-17T15:18:02;2.85;;;1.00;;
41755;SDS011;27435;48.480;9.258;2022-10-17T15:20:29;5.45;;;0.95;;
41755;SDS011;27435;48.480;9.258;2022-10-17T15:22:55;5.78;;;1.00;;
41755;SDS011;27435;48.480;9.258;2022-10-17T15:25:23;6.75;;;1.55;;
41755;SDS011;27435;48.480;9.258;2022-10-17T15:27:49;6.63;;;1.20;;
41755;SDS011;27435;48.480;9.258;2022-10-17T15:32:52;4.25;;;1.00;;
41755;SDS011;27435;48.480;9.258;2022-10-17T15:35:18;7.35;;;2.35;;
41755;SDS011;27435;48.480;9.258;2022-10-17T15:37:45;6.82;;;3.28;;
41755;SDS011;27435;48.480;9.258;2022-10-17T15:40:15;9.65;;;3.03;;
41755;SDS011;27435;48.480;9.258;2022-10-17T15:42:45;7.45;;;1.92;;
41755;SDS011;27435;48.480;9.258;2022-10-17T15:45:11;5.95;;;1.90;;
41755;SDS011;27435;48.480;9.258;2022-10-17T15:47:39;13.55;;;2.30;;
41755;SDS011;27435;48.480;9.258;2022-10-17T15:50:06;6.55;;;2.38;;
41755;SDS011;27435;48.480;9.258;2022-10-17T15:52:35;8.60;;;2.15;;
41755;SDS011;27435;48.480;9.258;2022-10-17T15:55:01;6.15;;;1.75;;
41755;SDS011;27435;48.480;9.258;2022-10-17T15:57:28;11.38;;;1.50;;
41755;SDS011;27435;48.480;9.258;2022-10-17T15:59:57;8.73;;;1.15;;
41755;SDS011;27435;48.480;9.258;2022-10-17T16:02:24;6.35;;;1.23;;
41755;SDS011;27435;48.480;9.258;2022-10-17T16:04:50;4.88;;;1.40;;
41755;SDS011;27435;48.480;9.258;2022-10-17T16:07:16;5.22;;;1.17;;
41755;SDS011;27435;48.480;9.258;2022-10-17T16:09:43;9.60;;;4.00;;
41755;SDS011;27435;48.480;9.258;2022-10-17T16:12:10;29.13;;;10.27;;
41755;SDS011;27435;48.480;9.258;2022-10-17T16:14:39;13.00;;;6.18;;
41755;SDS011;27435;48.480;9.258;2022-10-17T16:17:05;13.10;;;5.35;;
41755;SDS011;27435;48.480;9.258;2022-10-17T16:19:30;9.45;;;3.50;;
41755;SDS011;27435;48.480;9.258;2022-10-17T16:21:56;6.55;;;1.70;;
41755;SDS011;27435;48.480;9.258;2022-10-17T16:24:22;4.43;;;1.10;;
41755;SDS011;27435;48.480;9.258;2022-10-17T16:26:49;8.73;;;1.33;;
41755;SDS011;27435;48.480;9.258;2022-10-17T16:29:15;6.30;;;1.10;;
41755;SDS011;27435;48.480;9.258;2022-10-17T16:31:41;15.95;;;2.20;;
41755;SDS011;27435;48.480;9.258;2022-10-17T16:34:08;7.72;;;2.08;;
41755;SDS011;27435;48.480;9.258;2022-10-17T16:36:35;4.68;;;1.23;;
41755;SDS011;27435;48.480;9.258;2022-10-17T16:39:01;8.73;;;2.33;;
41755;SDS011;27435;48.480;9.258;2022-10-17T16:41:31;10.98;;;3.15;;
41755;SDS011;27435;48.480;9.258;2022-10-17T16:44:00;8.40;;;3.25;;
41755;SDS011;27435;48.480;9.258;2022-10-17T16:46:28;14.75;;;4.85;;
41755;SDS011;27435;48.480;9.258;2022-10-17T16:48:55;13.02;;;4.97;;
41755;SDS011;27435;48.480;9.258;2022-10-17T16:51:21;6.00;;;1.67;;
41755;SDS011;27435;48.480;9.258;2022-10-17T16:53:48;5.03;;;1.67;;
41755;SDS011;27435;48.480;9.258;2022-10-17T16:56:17;9.18;;;2.40;;
41755;SDS011;27435;48.480;9.258;2022-10-17T16:58:45;8.20;;;1.98;;
41755;SDS011;27435;48.480;9.258;2022-10-17T17:01:18;4.20;;;2.13;;
41755;SDS011;27435;48.480;9.258;2022-10-17T17:03:47;5.28;;;2.72;;
41755;SDS011;27435;48.480;9.258;2022-10-17T17:06:14;9.63;;;2.05;;
41755;SDS011;27435;48.480;9.258;2022-10-17T17:08:42;9.13;;;1.70;;
41755;SDS011;27435;48.480;9.258;2022-10-17T17:11:08;17.83;;;2.78;;
41755;SDS011;27435;48.480;9.258;2022-10-17T17:13:35;14.50;;;1.88;;
41755;SDS011;27435;48.480;9.258;2022-10-17T17:16:02;8.98;;;1.85;;
41755;SDS011;27435;48.480;9.258;2022-10-17T17:18:38;5.47;;;1.48;;
41755;SDS011;27435;48.480;9.258;2022-10-17T17:21:05;13.13;;;2.35;;
41755;SDS011;27435;48.480;9.258;2022-10-17T17:23:33;9.65;;;2.97;;
41755;SDS011;27435;48.480;9.258;2022-10-17T17:26:00;8.85;;;2.95;;
41755;SDS011;27435;48.480;9.258;2022-10-17T17:28:30;8.35;;;2.88;;